This is the latest recevied weather packets stored in our database for station/object SP6PGH-13. If no packets are shown the sender has not sent any weather packets the latest 10 day(s).
| Time | Temp. | Humidity | Pressure | Rain* | Wind** | Luminosity | Snow |
|---|---|---|---|---|---|---|---|
| 1777721404 | 23.89° C | 28% | 1009 hPa | - | - | 724 W/m² | - |
| 1777720503 | 23.33° C | 29% | 1009.2 hPa | - | - | 731 W/m² | - |
| 1777719602 | 22.78° C | 30% | 1009.3 hPa | - | - | 729 W/m² | - |
| 1777718701 | 23.33° C | 28% | 1009.6 hPa | - | - | 726 W/m² | - |
| 1777717799 | 23.33° C | 29% | 1009.7 hPa | - | - | 730 W/m² | - |
| 1777716898 | 23.33° C | 29% | 1009.9 hPa | - | - | 716 W/m² | - |
| 1777715997 | 23.33° C | 30% | 1010 hPa | - | - | 709 W/m² | - |
| 1777715096 | 22.78° C | 31% | 1010.2 hPa | - | - | 699 W/m² | - |
| 1777714195 | 22.78° C | 31% | 1010.4 hPa | - | - | 689 W/m² | - |
| 1777713294 | 22.22° C | 33% | 1010.6 hPa | - | - | 657 W/m² | - |
| 1777712394 | 22.22° C | 36% | 1010.6 hPa | - | - | 634 W/m² | - |
| 1777711493 | 21.67° C | 39% | 1010.7 hPa | - | - | 603 W/m² | - |
| 1777710592 | 21.11° C | 38% | 1010.8 hPa | - | - | 585 W/m² | - |
| 1777709691 | 21.11° C | 36% | 1010.9 hPa | - | - | 549 W/m² | - |
| 1777708790 | 21.67° C | 40% | 1011 hPa | - | - | 509 W/m² | - |
| 1777707889 | 20° C | 45% | 1011.1 hPa | - | - | 470 W/m² | - |
| 1777706988 | 18.89° C | 44% | 1011 hPa | - | - | 426 W/m² | - |
| 1777706087 | 18.89° C | 47% | 1011 hPa | - | - | 383 W/m² | - |
| 1777705186 | 17.22° C | 51% | 1011 hPa | - | - | 336 W/m² | - |
| 1777704285 | 16.67° C | 54% | 1011 hPa | - | - | 297 W/m² | - |
| 1777703384 | 13.33° C | 60% | 1011.1 hPa | - | - | 251 W/m² | - |
| 1777702483 | 12.22° C | 65% | 1011.2 hPa | - | - | 57 W/m² | - |
| 1777701582 | 11.11° C | 68% | 1011.1 hPa | - | - | 53 W/m² | - |
| 1777700681 | 10° C | 72% | 1011.1 hPa | - | - | 50 W/m² | - |
| 1777699780 | 8.89° C | 76% | 1011.2 hPa | - | - | 46 W/m² | - |
* Rain since midnight (hover to see other rain measurements)
** Current wind speed in m/s (hover to see current wind gust speed)